Time;durP1;ratioP1;P1;durP2;ratioP2;P2;SDS_P1;SDS_P2;PMS_P1;PMS_P2;Temp;Humidity;BMP_temperature;BMP_pressure;BME280_temperature;BME280_humidity;BME280_pressure;Samples;Min_cycle;Max_cycle;Signal;HPM_P1;HPM_P2
2022/01/12 00:01:22;;;;;;;5.60;1.40;;;7.80;85.60;;;;;;4910246;29;20068;-73
2022/01/12 00:03:51;;;;;;;3.03;1.08;;;7.80;85.40;;;;;;4917366;29;20623;-72
2022/01/12 00:06:19;;;;;;;5.13;1.48;;;7.80;86.00;;;;;;4917398;29;20847;-73
2022/01/12 00:08:48;;;;;;;2.35;1.42;;;7.70;86.30;;;;;;4921744;29;20407;-73
2022/01/12 00:11:18;;;;;;;4.00;1.40;;;7.70;86.50;;;;;;4911550;29;20107;-73
2022/01/12 00:13:45;;;;;;;3.95;1.50;;;7.70;86.60;;;;;;4898028;29;20475;-73
2022/01/12 00:16:14;;;;;;;3.67;1.35;;;7.70;86.80;;;;;;4879597;29;20440;-73
2022/01/12 00:18:44;;;;;;;4.20;1.83;;;7.70;87.10;;;;;;4879133;29;20533;-72
2022/01/12 00:21:12;;;;;;;5.72;1.35;;;7.60;87.30;;;;;;4897046;29;20092;-73
2022/01/12 00:23:41;;;;;;;2.55;1.20;;;7.60;87.80;;;;;;4877144;29;20047;-70
2022/01/12 00:34:42;;;;;;;3.95;1.52;;;7.50;88.30;;;;;;4895929;29;20044;-71
2022/01/12 00:37:11;;;;;;;3.50;1.20;;;7.60;88.40;;;;;;4895835;29;20075;-71
2022/01/12 00:39:39;;;;;;;3.05;1.33;;;7.50;88.60;;;;;;4877802;29;20040;-71
2022/01/12 00:42:13;;;;;;;3.00;1.40;;;7.40;88.40;;;;;;4879080;29;20048;-71
2022/01/12 00:44:45;;;;;;;3.50;1.65;;;7.50;88.60;;;;;;4897612;29;20048;-70
2022/01/12 00:47:13;;;;;;;6.25;1.60;;;7.40;89.10;;;;;;4880843;29;20135;-71
2022/01/12 00:49:41;;;;;;;2.03;1.17;;;7.40;89.00;;;;;;4893693;29;20664;-71
2022/01/12 00:52:10;;;;;;;4.55;1.85;;;7.40;89.20;;;;;;4896051;29;20052;-72
2022/01/12 00:54:38;;;;;;;4.85;1.35;;;7.40;89.10;;;;;;4885455;29;20095;-73
2022/01/12 00:57:08;;;;;;;4.50;1.60;;;7.40;89.20;;;;;;4900763;29;20049;-73
2022/01/12 00:59:36;;;;;;;4.78;1.98;;;7.30;89.70;;;;;;4887326;29;20415;-73
2022/01/12 01:02:05;;;;;;;2.17;1.27;;;7.30;89.80;;;;;;4884097;29;20104;-72
2022/01/12 01:04:34;;;;;;;4.25;1.40;;;7.30;89.70;;;;;;4883528;29;20052;-73
2022/01/12 01:07:03;;;;;;;4.00;1.50;;;7.30;89.10;;;;;;4900412;29;20442;-73
2022/01/12 01:09:34;;;;;;;5.70;1.38;;;7.40;88.80;;;;;;4904490;29;20044;-73
2022/01/12 01:12:02;;;;;;;4.32;1.20;;;7.40;89.00;;;;;;4891642;29;20060;-73
2022/01/12 01:14:47;;;;;;;2.80;1.30;;;7.30;89.40;;;;;;4900464;29;20071;-72
2022/01/12 01:25:29;;;;;;;4.65;1.38;;;7.30;90.00;;;;;;4916070;29;20044;-73
2022/01/12 01:25:44;;;;;;;3.45;1.63;;;7.30;88.70;;;;;;4919644;29;20052;-73
2022/01/12 01:28:13;;;;;;;6.35;1.30;;;7.30;88.90;;;;;;4918622;29;20586;-72
2022/01/12 01:30:44;;;;;;;4.13;1.48;;;7.30;88.90;;;;;;4916144;29;20052;-72
2022/01/12 01:33:16;;;;;;;4.68;1.38;;;7.30;89.40;;;;;;4888226;29;20395;-73
2022/01/12 01:35:52;;;;;;;4.50;1.30;;;7.20;89.40;;;;;;4907291;29;20048;-73
2022/01/12 01:38:24;;;;;;;4.15;1.48;;;7.30;88.60;;;;;;4904765;29;20494;-73
2022/01/12 01:40:52;;;;;;;4.63;1.50;;;7.30;88.90;;;;;;4900477;29;20142;-72
2022/01/12 01:43:43;;;;;;;6.13;1.60;;;7.30;89.50;;;;;;4899498;29;20043;-73
2022/01/12 01:54:40;;;;;;;3.58;1.80;;;7.20;90.10;;;;;;4931668;28;20059;-73
2022/01/12 01:57:08;;;;;;;5.63;1.67;;;7.20;89.90;;;;;;4907394;29;20039;-74
2022/01/12 01:59:40;;;;;;;5.95;1.85;;;7.20;90.40;;;;;;4908511;29;20048;-73
2022/01/12 02:02:10;;;;;;;4.25;1.80;;;7.20;90.40;;;;;;4884999;29;20488;-72
2022/01/12 02:04:39;;;;;;;4.32;1.35;;;7.10;90.90;;;;;;4917527;29;20066;-72
2022/01/12 02:07:07;;;;;;;6.20;1.52;;;7.10;90.90;;;;;;4913252;29;20058;-73
2022/01/12 02:09:35;;;;;;;6.32;1.30;;;7.10;90.60;;;;;;4914283;29;20050;-73
2022/01/12 02:12:14;;;;;;;3.08;1.38;;;7.20;89.00;;;;;;4920105;29;20491;-73
2022/01/12 02:14:43;;;;;;;5.03;1.58;;;7.20;89.50;;;;;;4889606;29;20139;-73
2022/01/12 02:17:19;;;;;;;2.58;1.17;;;7.10;89.30;;;;;;4899273;29;20036;-73
2022/01/12 02:36:53;;;;;;;3.85;1.33;;;7.20;88.00;;;;;;4923803;29;20043;-73
2022/01/12 02:42:17;;;;;;;2.80;1.10;;;7.20;87.20;;;;;;4921421;29;20440;-73
2022/01/12 02:50:41;;;;;;;3.95;1.10;;;7.10;86.80;;;;;;4918709;29;20046;-73
2022/01/12 02:56:00;;;;;;;3.25;1.15;;;7.20;86.50;;;;;;4922196;29;20043;-73
2022/01/12 02:58:28;;;;;;;4.20;1.33;;;7.10;86.20;;;;;;4897391;29;20071;-73
2022/01/12 03:01:25;;;;;;;6.65;1.50;;;7.10;86.10;;;;;;4933230;28;20043;-73
2022/01/12 03:03:53;;;;;;;2.25;1.00;;;7.10;85.90;;;;;;4916347;29;20044;-71
2022/01/12 03:06:29;;;;;;;3.72;1.15;;;7.10;85.90;;;;;;4899294;29;20448;-71
2022/01/12 03:08:59;;;;;;;4.57;1.40;;;7.10;85.60;;;;;;4919150;29;20134;-72
2022/01/12 03:11:31;;;;;;;3.00;1.50;;;7.10;85.40;;;;;;4901478;29;20088;-71
2022/01/12 03:14:10;;;;;;;4.28;1.52;;;7.10;85.10;;;;;;4919272;29;20053;-71
2022/01/12 03:16:41;;;;;;;2.45;0.95;;;7.20;85.30;;;;;;4905924;29;20051;-71
2022/01/12 03:19:18;;;;;;;2.42;1.08;;;7.20;85.10;;;;;;4890614;29;20036;-72
2022/01/12 03:21:46;;;;;;;3.25;1.23;;;7.20;85.00;;;;;;4918211;29;20055;-71
2022/01/12 03:24:16;;;;;;;2.67;1.05;;;7.20;85.10;;;;;;4894887;29;20981;-71
2022/01/12 03:26:48;;;;;;;3.33;1.02;;;7.20;85.60;;;;;;4918459;29;20058;-71
2022/01/12 03:29:17;;;;;;;2.17;0.95;;;7.10;86.10;;;;;;4899876;29;20494;-71
2022/01/12 03:31:45;;;;;;;5.55;1.25;;;7.10;86.20;;;;;;4897924;29;20146;-71
2022/01/12 03:34:26;;;;;;;3.10;1.42;;;7.10;86.40;;;;;;4897513;29;20132;-71
2022/01/12 03:37:17;;;;;;;2.72;1.20;;;7.10;86.70;;;;;;4901408;29;20463;-71
2022/01/12 03:39:43;;;;;;;4.18;0.95;;;7.10;87.00;;;;;;4898796;29;20107;-71
2022/01/12 03:42:14;;;;;;;3.58;1.35;;;7.10;86.40;;;;;;4901803;29;20035;-71
2022/01/12 03:44:42;;;;;;;3.50;1.20;;;7.10;86.80;;;;;;4896358;29;20143;-71
2022/01/12 03:47:10;;;;;;;4.90;1.52;;;7.00;87.20;;;;;;4920007;29;20055;-72
2022/01/12 03:49:39;;;;;;;4.53;1.23;;;7.00;87.20;;;;;;4883159;29;20047;-72
2022/01/12 03:52:07;;;;;;;3.28;1.40;;;7.10;87.70;;;;;;4894752;29;20091;-71
2022/01/12 03:54:35;;;;;;;3.78;1.92;;;7.00;88.20;;;;;;4916104;29;20043;-71
2022/01/12 03:57:04;;;;;;;4.03;1.67;;;7.00;88.60;;;;;;4902265;29;20051;-71
2022/01/12 03:59:34;;;;;;;5.10;1.52;;;7.00;88.80;;;;;;4902738;29;20109;-71
2022/01/12 04:02:03;;;;;;;3.13;1.20;;;7.00;89.10;;;;;;4899626;29;20514;-71
2022/01/12 04:04:37;;;;;;;4.57;1.50;;;7.00;89.40;;;;;;4896581;29;20036;-71
2022/01/12 04:09:52;;;;;;;2.63;1.30;;;6.90;89.70;;;;;;4893518;29;20052;-71
2022/01/12 04:12:21;;;;;;;3.78;1.65;;;6.90;89.90;;;;;;4897585;29;20141;-71
2022/01/12 04:14:50;;;;;;;4.05;1.30;;;6.90;90.10;;;;;;4921182;29;20435;-71
2022/01/12 04:17:18;;;;;;;2.58;1.83;;;6.90;90.40;;;;;;4898418;29;20446;-71
2022/01/12 04:19:47;;;;;;;2.95;1.73;;;6.80;90.70;;;;;;4898685;29;20518;-71
2022/01/12 04:23:16;;;;;;;3.72;1.38;;;6.80;91.00;;;;;;4899151;29;20040;-71
2022/01/12 04:25:13;;;;;;;3.53;1.55;;;6.90;91.30;;;;;;4897739;29;20383;-72
2022/01/12 04:27:41;;;;;;;4.03;1.90;;;6.90;91.60;;;;;;4916256;29;20483;-71
2022/01/12 04:30:12;;;;;;;4.15;1.58;;;6.90;92.00;;;;;;4886759;29;20059;-72
2022/01/12 04:32:42;;;;;;;2.67;1.25;;;6.90;92.30;;;;;;4900118;29;20052;-71
2022/01/12 04:35:11;;;;;;;2.30;1.40;;;6.90;92.60;;;;;;4902936;29;20055;-71
2022/01/12 04:37:40;;;;;;;4.20;1.80;;;6.90;92.70;;;;;;4913109;29;20044;-71
2022/01/12 04:40:10;;;;;;;7.10;1.70;;;6.90;92.90;;;;;;4899277;29;20139;-71
2022/01/12 04:42:39;;;;;;;5.32;1.98;;;6.90;93.10;;;;;;4892898;29;20135;-71
2022/01/12 04:50:25;;;;;;;3.65;1.73;;;6.90;93.00;;;;;;4912781;29;20043;-71
2022/01/12 04:52:53;;;;;;;3.97;1.58;;;6.90;92.90;;;;;;4901816;29;20048;-71
2022/01/12 04:55:21;;;;;;;2.55;1.35;;;6.90;92.70;;;;;;4906133;29;20138;-71
2022/01/12 04:57:49;;;;;;;3.72;1.45;;;6.90;92.60;;;;;;4902829;29;20055;-72
2022/01/12 05:00:18;;;;;;;3.50;1.13;;;6.90;91.90;;;;;;4916329;29;20128;-71
2022/01/12 05:13:50;;;;;;;4.28;1.30;;;6.90;91.60;;;;;;4916744;29;20044;-72
2022/01/12 05:16:19;;;;;;;3.25;1.48;;;6.90;92.00;;;;;;4918481;29;20506;-72
2022/01/12 05:18:49;;;;;;;4.07;1.45;;;6.90;91.90;;;;;;4915125;29;20172;-71
2022/01/12 05:21:23;;;;;;;3.42;1.30;;;7.00;92.20;;;;;;4895487;29;20071;-72
2022/01/12 05:23:52;;;;;;;3.22;1.50;;;7.00;92.10;;;;;;4886772;29;20062;-71
2022/01/12 05:26:20;;;;;;;4.35;1.70;;;6.90;92.20;;;;;;4899927;29;20046;-71
2022/01/12 05:28:49;;;;;;;3.53;1.52;;;7.00;92.20;;;;;;4899865;29;20056;-71
2022/01/12 05:31:17;;;;;;;2.85;1.30;;;7.00;92.20;;;;;;4896632;29;20040;-71
2022/01/12 05:33:48;;;;;;;2.85;1.15;;;7.00;92.30;;;;;;4896078;29;20126;-71
2022/01/12 05:36:20;;;;;;;3.95;1.40;;;7.00;92.10;;;;;;4899354;29;20051;-71
2022/01/12 05:38:51;;;;;;;3.30;1.20;;;7.00;92.20;;;;;;4900363;29;20329;-71
2022/01/12 05:41:19;;;;;;;4.60;1.48;;;7.00;92.10;;;;;;4906392;29;20872;-71
2022/01/12 05:43:48;;;;;;;3.17;1.40;;;7.00;92.30;;;;;;4904535;29;20099;-71
2022/01/12 05:46:22;;;;;;;4.35;1.70;;;7.00;92.40;;;;;;4888817;29;20040;-71
2022/01/12 05:51:47;;;;;;;5.63;2.13;;;7.10;92.70;;;;;;4919320;29;20549;-71
2022/01/12 05:54:19;;;;;;;3.22;1.60;;;7.10;92.90;;;;;;4920471;29;20119;-71
2022/01/12 05:56:47;;;;;;;4.60;1.80;;;7.10;92.80;;;;;;4920814;29;20280;-72
2022/01/12 05:59:17;;;;;;;3.42;1.92;;;7.10;92.60;;;;;;4887380;29;20067;-71
2022/01/12 06:01:45;;;;;;;3.90;1.60;;;7.10;92.50;;;;;;4901545;29;20051;-72
2022/01/12 06:04:15;;;;;;;2.85;1.25;;;7.10;92.60;;;;;;4890554;29;20405;-71
2022/01/12 06:06:43;;;;;;;2.17;1.48;;;7.20;91.80;;;;;;4904107;29;20048;-71
2022/01/12 06:09:13;;;;;;;3.47;1.75;;;7.20;91.90;;;;;;4914507;29;20683;-71
2022/01/12 06:11:42;;;;;;;5.32;1.45;;;7.10;92.30;;;;;;4900997;29;20063;-71
2022/01/12 06:14:12;;;;;;;4.38;1.60;;;7.10;92.30;;;;;;4898536;29;20051;-71
2022/01/12 06:16:41;;;;;;;7.10;2.20;;;7.10;92.00;;;;;;4922340;29;20493;-71
2022/01/12 06:19:09;;;;;;;4.25;2.30;;;7.00;92.90;;;;;;4901064;29;20062;-71
2022/01/12 06:21:48;;;;;;;5.10;2.22;;;6.80;93.20;;;;;;4907030;29;20052;-71
2022/01/12 06:24:25;;;;;;;5.85;1.92;;;6.80;93.70;;;;;;4899404;29;20048;-71
2022/01/12 06:26:53;;;;;;;3.35;1.60;;;6.80;93.70;;;;;;4905388;29;20111;-71
2022/01/12 06:31:53;;;;;;;5.88;1.70;;;6.80;94.40;;;;;;4916238;29;20044;-72
2022/01/12 06:34:21;;;;;;;3.40;1.95;;;6.90;94.80;;;;;;4897203;29;20100;-71
2022/01/12 06:36:50;;;;;;;4.03;2.05;;;7.00;95.00;;;;;;4901961;29;20044;-71
2022/01/12 06:39:20;;;;;;;3.65;1.85;;;6.90;95.40;;;;;;4900549;29;20071;-71
2022/01/12 06:41:53;;;;;;;2.67;1.38;;;7.00;95.70;;;;;;4921422;29;20138;-71
2022/01/12 06:44:23;;;;;;;3.95;1.50;;;7.00;95.70;;;;;;4903408;29;20146;-71
2022/01/12 06:46:52;;;;;;;3.95;1.33;;;6.90;95.30;;;;;;4893438;29;20048;-71
2022/01/12 06:49:20;;;;;;;4.07;2.10;;;6.90;95.80;;;;;;4897950;29;20151;-71
2022/01/12 06:51:49;;;;;;;4.80;2.13;;;6.90;95.90;;;;;;4902574;29;20055;-72
2022/01/12 06:54:18;;;;;;;4.50;1.98;;;6.80;96.20;;;;;;4899917;29;20507;-71
2022/01/12 06:56:47;;;;;;;3.22;1.73;;;6.90;96.70;;;;;;4899331;29;20048;-70
2022/01/12 06:59:16;;;;;;;3.17;1.60;;;6.90;96.70;;;;;;4902124;29;20048;-71
2022/01/12 07:01:45;;;;;;;4.88;2.03;;;7.00;96.70;;;;;;4887070;29;20573;-74
2022/01/12 07:04:17;;;;;;;5.38;2.60;;;6.90;96.70;;;;;;4890167;29;20044;-75
2022/01/12 07:06:45;;;;;;;5.15;2.20;;;6.90;96.70;;;;;;4899052;29;20087;-71
2022/01/12 07:09:18;;;;;;;5.07;2.33;;;6.90;96.70;;;;;;4890011;29;20066;-71
2022/01/12 07:11:54;;;;;;;5.95;2.10;;;6.80;96.70;;;;;;4904022;29;20093;-72
2022/01/12 07:14:39;;;;;;;9.00;2.90;;;6.90;96.70;;;;;;4901066;29;20055;-71
2022/01/12 07:17:10;;;;;;;4.60;2.35;;;6.90;96.70;;;;;;4895785;29;20413;-70
2022/01/12 07:19:38;;;;;;;8.20;2.55;;;6.90;96.70;;;;;;4931741;29;20067;-71
2022/01/12 07:22:07;;;;;;;6.10;3.00;;;6.90;96.70;;;;;;4900096;29;20047;-70
2022/01/12 07:24:35;;;;;;;9.60;3.42;;;6.90;96.70;;;;;;4901975;29;20058;-71
2022/01/12 07:27:04;;;;;;;6.35;3.35;;;6.90;96.70;;;;;;4903656;29;20569;-71
2022/01/12 07:29:32;;;;;;;7.32;3.58;;;6.80;96.70;;;;;;4899852;29;20068;-71
2022/01/12 07:32:02;;;;;;;9.82;5.55;;;6.80;96.70;;;;;;4917811;29;20386;-74
2022/01/12 07:34:30;;;;;;;5.53;3.13;;;6.90;96.70;;;;;;4917298;29;20043;-74
2022/01/12 07:36:58;;;;;;;6.45;2.90;;;6.90;96.70;;;;;;4912905;29;20039;-74
2022/01/12 07:39:26;;;;;;;5.40;2.78;;;7.00;96.70;;;;;;4914490;29;20040;-71
2022/01/12 07:41:54;;;;;;;4.30;2.00;;;7.00;96.70;;;;;;4918328;29;20390;-71
2022/01/12 07:44:27;;;;;;;5.65;2.30;;;7.10;96.70;;;;;;4901850;29;20439;-74
2022/01/12 07:46:56;;;;;;;4.20;1.77;;;7.10;96.70;;;;;;4898378;29;20107;-73
2022/01/12 07:49:26;;;;;;;7.10;2.58;;;7.10;96.70;;;;;;4915802;29;20347;-73
2022/01/12 07:51:54;;;;;;;4.93;1.75;;;7.20;96.70;;;;;;4916576;29;20046;-73
2022/01/12 07:54:23;;;;;;;6.40;2.75;;;7.30;96.70;;;;;;4898707;29;21212;-73
2022/01/12 07:56:51;;;;;;;4.35;1.83;;;7.30;96.70;;;;;;4901199;29;20438;-73
2022/01/12 07:59:19;;;;;;;5.68;1.95;;;7.40;96.70;;;;;;4920746;29;21343;-73
2022/01/12 08:01:47;;;;;;;3.75;2.08;;;7.40;96.70;;;;;;4903295;29;20040;-74
2022/01/12 08:04:15;;;;;;;4.15;2.08;;;7.40;96.70;;;;;;4895910;29;20044;-73
2022/01/12 08:06:51;;;;;;;4.68;2.03;;;7.40;96.70;;;;;;4897770;29;20600;-73
2022/01/12 08:09:19;;;;;;;5.60;1.90;;;7.50;96.70;;;;;;4914340;29;20048;-73
2022/01/12 08:11:47;;;;;;;5.22;2.17;;;7.60;96.70;;;;;;4897985;29;20051;-74
2022/01/12 08:14:15;;;;;;;7.07;1.70;;;7.60;96.70;;;;;;4896087;29;20092;-73
2022/01/12 08:16:43;;;;;;;9.48;2.65;;;7.60;96.70;;;;;;4902374;29;20585;-73
2022/01/12 08:19:11;;;;;;;4.82;2.00;;;7.70;96.70;;;;;;4899099;29;20515;-71
2022/01/12 08:21:39;;;;;;;3.75;1.80;;;7.70;96.70;;;;;;4902050;29;20035;-71
2022/01/12 08:24:11;;;;;;;6.43;1.85;;;7.80;96.70;;;;;;4914227;29;20088;-71
2022/01/12 08:26:59;;;;;;;4.80;1.75;;;7.80;96.70;;;;;;4885733;29;20643;-71
2022/01/12 08:29:29;;;;;;;5.40;2.30;;;7.90;96.70;;;;;;4915918;29;20048;-72
2022/01/12 08:31:57;;;;;;;3.85;2.00;;;7.80;96.60;;;;;;4899117;29;20597;-72
2022/01/12 08:34:26;;;;;;;5.22;2.25;;;7.80;96.70;;;;;;4895482;29;20048;-72
2022/01/12 08:36:54;;;;;;;5.55;2.20;;;7.80;96.30;;;;;;4896809;29;20049;-71
2022/01/12 08:39:24;;;;;;;5.45;2.50;;;7.80;96.70;;;;;;4900535;29;20032;-73
2022/01/12 08:41:52;;;;;;;5.60;2.25;;;7.90;96.70;;;;;;4917678;29;20142;-73
2022/01/12 08:44:34;;;;;;;4.93;2.13;;;7.90;96.70;;;;;;4902329;29;20742;-72
2022/01/12 08:47:03;;;;;;;6.25;2.60;;;7.90;96.70;;;;;;4897189;29;20067;-71
2022/01/12 08:49:31;;;;;;;4.15;2.03;;;7.90;96.70;;;;;;4916725;29;20044;-71
2022/01/12 08:51:59;;;;;;;5.13;2.10;;;8.00;96.70;;;;;;4914224;29;20414;-70
2022/01/12 08:54:29;;;;;;;4.90;2.22;;;8.10;96.70;;;;;;4915315;29;20139;-71
2022/01/12 08:56:57;;;;;;;6.95;2.28;;;8.10;96.70;;;;;;4899478;29;20122;-70
2022/01/12 08:59:25;;;;;;;6.05;2.40;;;8.20;96.70;;;;;;4912806;29;20044;-71
2022/01/12 09:01:53;;;;;;;3.88;2.20;;;8.20;96.70;;;;;;4913997;29;20064;-71
2022/01/12 09:04:21;;;;;;;4.43;2.00;;;8.20;96.70;;;;;;4916032;29;20107;-70
2022/01/12 09:06:51;;;;;;;4.15;1.83;;;8.30;96.70;;;;;;4894258;29;20071;-70
2022/01/12 09:09:19;;;;;;;4.80;1.85;;;8.30;96.70;;;;;;4900650;29;20059;-71
2022/01/12 09:11:49;;;;;;;5.03;2.30;;;8.40;96.70;;;;;;4920531;29;20091;-70
2022/01/12 09:14:18;;;;;;;2.88;1.95;;;8.50;96.70;;;;;;4922158;29;20069;-71
2022/01/12 09:16:54;;;;;;;4.38;2.13;;;8.60;96.70;;;;;;4899556;29;20039;-70
2022/01/12 09:19:22;;;;;;;4.05;2.45;;;8.60;96.20;;;;;;4908758;29;20044;-71
2022/01/12 09:21:51;;;;;;;5.13;2.63;;;8.70;96.70;;;;;;4913554;29;20405;-71
2022/01/12 09:24:19;;;;;;;6.60;2.20;;;8.80;96.50;;;;;;4906027;29;20573;-71
2022/01/12 09:26:49;;;;;;;3.25;1.98;;;8.90;95.30;;;;;;4916465;29;20062;-71
2022/01/12 09:29:18;;;;;;;5.30;2.13;;;9.00;95.80;;;;;;4902412;29;20044;-71
2022/01/12 09:31:46;;;;;;;4.10;1.67;;;9.00;95.40;;;;;;4915774;29;20082;-71
2022/01/12 09:34:14;;;;;;;5.32;2.42;;;8.90;95.00;;;;;;4917456;29;20043;-71
2022/01/12 09:36:42;;;;;;;4.20;1.92;;;9.00;94.90;;;;;;4921660;29;20036;-71
2022/01/12 09:39:11;;;;;;;5.55;1.80;;;9.00;94.30;;;;;;4921525;29;20063;-71
2022/01/12 09:41:39;;;;;;;4.57;2.38;;;9.10;95.10;;;;;;4918877;29;20498;-71
2022/01/12 09:44:09;;;;;;;4.88;2.20;;;9.20;95.00;;;;;;4915248;29;20050;-71
2022/01/12 09:46:37;;;;;;;4.38;2.10;;;9.20;93.80;;;;;;4916615;29;20040;-71
2022/01/12 09:49:06;;;;;;;4.88;2.38;;;9.20;93.80;;;;;;4902921;29;20060;-71
2022/01/12 09:51:34;;;;;;;4.68;2.22;;;9.20;93.80;;;;;;4915214;29;20076;-69
2022/01/12 09:54:03;;;;;;;6.13;2.63;;;9.30;94.20;;;;;;4917194;29;20047;-71
2022/01/12 09:56:31;;;;;;;5.05;2.25;;;9.40;93.60;;;;;;4898789;29;20198;-71
2022/01/12 09:59:05;;;;;;;4.40;2.30;;;9.30;93.50;;;;;;4900927;29;20055;-71
2022/01/12 10:01:37;;;;;;;3.45;1.60;;;9.40;93.70;;;;;;4903344;29;20498;-71
2022/01/12 10:04:07;;;;;;;3.72;2.00;;;9.40;93.50;;;;;;4914774;29;20135;-71
2022/01/12 10:06:36;;;;;;;5.25;2.10;;;9.40;93.10;;;;;;4918153;29;20869;-71
2022/01/12 10:09:04;;;;;;;5.93;2.38;;;9.50;93.00;;;;;;4886696;29;20438;-71
2022/01/12 10:11:33;;;;;;;4.00;2.47;;;9.60;92.80;;;;;;4919556;29;20049;-71
2022/01/12 10:14:02;;;;;;;5.03;1.90;;;9.70;93.10;;;;;;4899136;29;20059;-71
2022/01/12 10:16:30;;;;;;;3.03;1.83;;;9.70;92.70;;;;;;4917558;29;20040;-71
2022/01/12 10:19:01;;;;;;;5.70;2.58;;;9.80;92.90;;;;;;4916247;29;20121;-71
2022/01/12 10:21:32;;;;;;;4.28;2.97;;;9.90;93.00;;;;;;4906299;29;20054;-71
2022/01/12 10:24:03;;;;;;;5.45;2.10;;;10.00;92.30;;;;;;4896833;29;20415;-71
2022/01/12 10:26:34;;;;;;;4.78;2.30;;;10.00;92.00;;;;;;4897489;29;20546;-71
2022/01/12 10:29:04;;;;;;;6.03;3.28;;;10.10;92.50;;;;;;4903479;29;20067;-71
2022/01/12 10:31:43;;;;;;;5.05;2.58;;;10.30;92.50;;;;;;4916649;29;20103;-71
2022/01/12 10:34:21;;;;;;;4.40;2.03;;;10.40;92.20;;;;;;4900325;29;20059;-71
2022/01/12 10:36:50;;;;;;;4.47;2.03;;;10.40;91.00;;;;;;4900519;29;20350;-71
2022/01/12 10:39:19;;;;;;;4.45;2.30;;;10.30;90.80;;;;;;4905155;29;20040;-71
2022/01/12 10:42:00;;;;;;;3.63;2.10;;;10.30;90.90;;;;;;4903531;29;20043;-71
2022/01/12 10:44:31;;;;;;;5.00;2.70;;;10.40;90.90;;;;;;4898173;29;20051;-70
2022/01/12 10:47:14;;;;;;;5.13;2.10;;;10.50;90.70;;;;;;4914982;29;20052;-70
2022/01/12 10:49:56;;;;;;;4.60;2.35;;;10.60;91.00;;;;;;4912497;29;20707;-70
2022/01/12 10:52:27;;;;;;;4.68;1.95;;;10.40;90.20;;;;;;4919904;29;20076;-70
2022/01/12 10:54:57;;;;;;;2.75;1.40;;;10.40;90.50;;;;;;4916427;29;20051;-71
2022/01/12 10:57:27;;;;;;;4.70;2.03;;;10.50;90.00;;;;;;4917304;29;20045;-71
2022/01/12 11:00:18;;;;;;;4.35;1.90;;;10.50;89.90;;;;;;4918344;29;20040;-71
2022/01/12 11:02:49;;;;;;;2.80;1.52;;;10.40;89.90;;;;;;4902923;29;20044;-71
2022/01/12 11:05:21;;;;;;;5.70;2.30;;;10.40;89.70;;;;;;4904603;29;20119;-71
2022/01/12 11:07:50;;;;;;;3.13;1.75;;;10.50;90.40;;;;;;4917249;29;20051;-71
2022/01/12 11:10:19;;;;;;;4.18;2.20;;;10.50;90.40;;;;;;4916804;29;20043;-71
2022/01/12 11:12:48;;;;;;;3.55;1.70;;;10.60;90.60;;;;;;4897035;29;20135;-71
2022/01/12 11:15:17;;;;;;;4.90;1.77;;;10.60;89.80;;;;;;4903750;29;20039;-72
2022/01/12 11:17:47;;;;;;;3.53;1.88;;;10.70;90.50;;;;;;4901839;29;20066;-71
2022/01/12 11:20:19;;;;;;;6.32;1.80;;;10.70;90.40;;;;;;4900701;29;20076;-71
2022/01/12 11:22:58;;;;;;;3.85;1.67;;;10.70;90.30;;;;;;4902862;29;20553;-71
2022/01/12 11:25:29;;;;;;;3.25;1.52;;;10.80;90.30;;;;;;4905626;29;20498;-70
2022/01/12 11:28:09;;;;;;;3.90;2.10;;;10.80;89.60;;;;;;4919670;29;20048;-71
2022/01/12 11:30:40;;;;;;;4.47;1.83;;;10.90;89.90;;;;;;4900426;29;20070;-71
2022/01/12 11:33:10;;;;;;;4.18;1.92;;;11.00;89.70;;;;;;4881256;29;20142;-70
2022/01/12 11:35:42;;;;;;;4.50;1.88;;;11.00;89.10;;;;;;4918704;29;20044;-71
2022/01/12 11:38:23;;;;;;;3.40;2.10;;;11.10;89.00;;;;;;4922213;29;20128;-71
2022/01/12 11:40:54;;;;;;;4.15;1.83;;;11.20;89.30;;;;;;4913892;29;20099;-71
2022/01/12 11:43:25;;;;;;;4.15;1.98;;;11.30;89.90;;;;;;4922617;29;20071;-72
2022/01/12 11:46:03;;;;;;;5.05;1.65;;;11.30;88.50;;;;;;4884624;29;20066;-72
2022/01/12 11:48:34;;;;;;;2.97;1.80;;;11.20;88.30;;;;;;4901372;29;21185;-71
2022/01/12 11:51:04;;;;;;;3.15;1.98;;;11.30;88.60;;;;;;4913883;29;20054;-71
2022/01/12 11:53:44;;;;;;;2.92;1.35;;;11.40;88.00;;;;;;4909917;29;20044;-72
2022/01/12 11:56:15;;;;;;;2.80;1.60;;;11.40;88.00;;;;;;4900677;29;20055;-71
2022/01/12 11:58:55;;;;;;;3.33;1.60;;;11.50;88.30;;;;;;4919897;29;20691;-71
2022/01/12 12:01:34;;;;;;;3.70;1.75;;;11.60;88.30;;;;;;4896144;29;20048;-72
2022/01/12 12:04:04;;;;;;;3.13;1.40;;;11.70;87.80;;;;;;4897250;29;20044;-72
2022/01/12 12:06:35;;;;;;;2.78;1.50;;;11.70;86.90;;;;;;4915597;29;20071;-72
2022/01/12 12:09:07;;;;;;;5.97;1.98;;;11.80;87.20;;;;;;4897812;29;20055;-74
2022/01/12 12:11:36;;;;;;;2.42;1.48;;;11.90;86.70;;;;;;4919096;29;20044;-73
2022/01/12 12:14:05;;;;;;;3.85;1.80;;;11.60;85.90;;;;;;4921302;29;20083;-73
2022/01/12 12:16:35;;;;;;;4.25;1.30;;;11.80;86.20;;;;;;4916035;29;20048;-74
2022/01/12 12:19:05;;;;;;;2.97;1.50;;;11.80;85.80;;;;;;4895584;29;20079;-73
2022/01/12 12:21:35;;;;;;;2.88;1.40;;;11.90;86.50;;;;;;4914871;29;20071;-74
2022/01/12 12:24:12;;;;;;;4.35;1.58;;;12.10;86.60;;;;;;4898589;29;20047;-71
2022/01/12 12:26:51;;;;;;;3.30;1.60;;;12.20;86.70;;;;;;4905679;29;20163;-71
2022/01/12 12:29:26;;;;;;;4.13;1.63;;;12.40;86.00;;;;;;4895311;29;20154;-71
2022/01/12 12:31:58;;;;;;;3.60;1.80;;;12.40;85.50;;;;;;4905766;29;20095;-71
2022/01/12 12:34:29;;;;;;;2.28;1.45;;;12.50;85.50;;;;;;4900467;29;20099;-71
2022/01/12 12:37:01;;;;;;;2.50;1.25;;;12.60;85.40;;;;;;4910603;29;20570;-72
2022/01/12 12:39:32;;;;;;;2.28;1.00;;;12.70;85.30;;;;;;4899288;29;20668;-72
2022/01/12 12:42:02;;;;;;;2.63;1.10;;;12.80;84.90;;;;;;4895199;29;20051;-74
2022/01/12 12:44:33;;;;;;;3.60;1.35;;;12.90;84.40;;;;;;4898229;29;20166;-74
2022/01/12 12:47:11;;;;;;;3.90;1.90;;;12.90;84.60;;;;;;4903515;29;20048;-74
2022/01/12 12:49:50;;;;;;;2.70;1.38;;;12.90;84.40;;;;;;4902926;29;20080;-75
2022/01/12 12:52:29;;;;;;;3.75;1.75;;;13.00;84.90;;;;;;4902623;29;20052;-74
2022/01/12 12:54:59;;;;;;;2.75;1.38;;;13.00;84.10;;;;;;4905867;29;20524;-72
2022/01/12 12:57:28;;;;;;;3.13;1.40;;;13.00;83.90;;;;;;4919437;29;20096;-72
2022/01/12 13:00:11;;;;;;;5.88;1.48;;;13.00;83.50;;;;;;4923133;29;20039;-72
2022/01/12 13:02:41;;;;;;;3.35;1.67;;;12.90;83.60;;;;;;4914537;29;20062;-72
2022/01/12 13:05:12;;;;;;;3.97;1.50;;;12.90;83.80;;;;;;4901760;29;20596;-72
2022/01/12 13:07:44;;;;;;;3.38;1.65;;;12.80;82.70;;;;;;4907387;29;20075;-72
2022/01/12 13:10:15;;;;;;;2.63;1.20;;;12.90;83.00;;;;;;4905165;29;20410;-72
2022/01/12 13:12:45;;;;;;;4.60;1.42;;;12.90;83.00;;;;;;4913373;29;20616;-72
2022/01/12 13:15:20;;;;;;;3.47;1.42;;;12.90;82.50;;;;;;4920626;29;20557;-72
2022/01/12 13:17:56;;;;;;;3.00;1.40;;;12.80;83.30;;;;;;4923249;29;20394;-72
2022/01/12 13:23:03;;;;;;;5.38;1.95;;;12.80;80.40;;;;;;4918535;29;20036;-73
2022/01/12 13:25:32;;;;;;;2.38;1.02;;;12.80;80.10;;;;;;4905130;29;20063;-72
2022/01/12 13:28:01;;;;;;;3.20;1.52;;;12.80;78.80;;;;;;4921625;29;20055;-72
2022/01/12 13:30:32;;;;;;;3.42;1.17;;;12.90;80.00;;;;;;4924295;29;20047;-72
2022/01/12 13:33:03;;;;;;;1.50;0.73;;;12.90;80.00;;;;;;4921850;29;20055;-73
2022/01/12 13:35:35;;;;;;;3.70;1.02;;;12.80;78.90;;;;;;4903449;29;20654;-72
2022/01/12 13:38:07;;;;;;;3.05;1.27;;;12.90;79.40;;;;;;4900174;29;20075;-72
2022/01/12 13:40:43;;;;;;;3.35;1.10;;;12.80;79.60;;;;;;4916815;29;20059;-72
2022/01/12 13:43:12;;;;;;;1.70;1.10;;;12.90;79.70;;;;;;4918365;29;20052;-72
2022/01/12 13:45:44;;;;;;;2.63;1.30;;;12.80;79.50;;;;;;4903433;29;20051;-72
2022/01/12 13:48:20;;;;;;;3.55;1.27;;;12.60;80.00;;;;;;4903642;29;20071;-72
2022/01/12 13:50:52;;;;;;;3.70;1.30;;;12.40;80.10;;;;;;4912279;29;20043;-72
2022/01/12 13:53:31;;;;;;;2.53;1.30;;;12.20;80.10;;;;;;4919718;29;20234;-71
2022/01/12 13:56:00;;;;;;;3.15;1.48;;;12.00;80.30;;;;;;4921176;29;20384;-72
2022/01/12 13:58:29;;;;;;;4.50;1.70;;;12.00;80.30;;;;;;4918283;29;20387;-72
2022/01/12 14:01:03;;;;;;;2.75;1.30;;;11.90;81.00;;;;;;4915940;29;20119;-72
2022/01/12 14:03:39;;;;;;;3.05;1.50;;;11.80;80.70;;;;;;4922172;29;20047;-73
2022/01/12 14:06:16;;;;;;;4.47;1.75;;;11.70;81.70;;;;;;4921913;29;20046;-72
2022/01/12 14:08:56;;;;;;;;;;;11.60;81.20;;;;;;4915616;29;20143;-72
2022/01/12 14:11:32;;;;;;;3.17;1.63;;;11.50;81.50;;;;;;4921067;29;19962;-72
2022/01/12 14:14:02;;;;;;;4.68;1.50;;;11.40;81.40;;;;;;4905751;29;20173;-72
2022/01/12 14:16:32;;;;;;;5.57;1.83;;;11.40;81.50;;;;;;4904396;29;20043;-73
2022/01/12 14:19:01;;;;;;;3.42;1.52;;;11.30;81.20;;;;;;4899243;29;20244;-72
2022/01/12 14:21:30;;;;;;;6.85;1.90;;;11.30;81.60;;;;;;4902560;29;20035;-72
2022/01/12 14:24:00;;;;;;;3.40;2.17;;;11.20;81.70;;;;;;4902851;29;20039;-72
2022/01/12 14:26:34;;;;;;;4.53;1.83;;;11.20;81.70;;;;;;4899926;29;20146;-72
2022/01/12 14:29:03;;;;;;;4.03;1.40;;;11.10;81.40;;;;;;4897326;29;20137;-72
2022/01/12 14:31:32;;;;;;;3.45;1.35;;;11.10;81.20;;;;;;4912307;29;20043;-72
2022/01/12 14:34:01;;;;;;;3.90;1.63;;;11.00;80.70;;;;;;4897217;29;21808;-73